Time;durP1;ratioP1;P1;durP2;ratioP2;P2;SDS_P1;SDS_P2;PMS_P1;PMS_P2;Temp;Humidity;BMP_temperature;BMP_pressure;BME280_temperature;BME280_humidity;BME280_pressure;Samples;Min_cycle;Max_cycle;Signal;HPM_P1;HPM_P2
2020/12/14 00:01:53;;;;;;;4.25;2.80;;;4.10;94.40;;;;;;4995938;28;20121;-81
2020/12/14 00:04:19;;;;;;;3.83;3.20;;;4.20;94.60;;;;;;5012415;28;20025;-84
2020/12/14 00:06:54;;;;;;;4.05;2.95;;;3.70;94.30;;;;;;4995939;28;20030;-83
2020/12/14 00:09:23;;;;;;;4.75;2.88;;;2.50;99.90;;;;;;5012152;28;20021;-83
2020/12/14 00:11:49;;;;;;;4.95;3.00;;;3.30;94.50;;;;;;4995673;28;20692;-81
2020/12/14 00:14:16;;;;;;;3.33;2.90;;;4.10;95.00;;;;;;4997121;28;20085;-80
2020/12/14 00:16:42;;;;;;;3.63;2.50;;;2.60;94.60;;;;;;5014563;28;20029;-83
2020/12/14 00:19:08;;;;;;;3.10;2.65;;;4.10;95.10;;;;;;5015117;28;20053;-85
2020/12/14 00:21:33;;;;;;;3.13;2.63;;;2.50;99.90;;;;;;4995475;28;20036;-83
2020/12/14 00:23:59;;;;;;;3.88;2.58;;;3.40;99.90;;;;;;4995163;28;20048;-84
2020/12/14 00:26:24;;;;;;;2.95;2.45;;;3.10;95.00;;;;;;5011977;28;20042;-83
2020/12/14 00:28:50;;;;;;;3.13;2.50;;;3.10;95.00;;;;;;4995393;28;20423;-82
2020/12/14 00:31:16;;;;;;;2.92;2.50;;;2.80;94.90;;;;;;5011723;28;20026;-84
2020/12/14 00:33:42;;;;;;;3.25;2.72;;;;;;;;;;4995347;28;20129;-84
2020/12/14 00:36:09;;;;;;;3.58;2.97;;;2.50;98.40;;;;;;5012067;28;20112;-82
2020/12/14 00:38:35;;;;;;;4.13;3.28;;;3.70;95.30;;;;;;4998465;28;20031;-83
2020/12/14 00:41:00;;;;;;;3.85;3.25;;;3.80;95.60;;;;;;5031459;28;20451;-82
2020/12/14 00:43:26;;;;;;;4.55;3.30;;;3.70;95.50;;;;;;5015064;28;20499;-82
2020/12/14 00:45:52;;;;;;;4.72;3.20;;;;;;;;;;4998890;28;20033;-82
2020/12/14 00:48:18;;;;;;;7.97;3.60;;;2.50;98.10;;;;;;5014645;28;20045;-82
2020/12/14 00:50:43;;;;;;;4.82;4.05;;;3.70;95.00;;;;;;5014708;28;20043;-81
2020/12/14 00:53:09;;;;;;;4.55;3.30;;;3.30;94.90;;;;;;4997856;28;20072;-85
2020/12/14 00:55:34;;;;;;;3.58;2.70;;;3.80;95.40;;;;;;5014677;28;20022;-83
2020/12/14 00:58:00;;;;;;;4.40;3.20;;;2.60;99.90;;;;;;4998385;28;20587;-82
2020/12/14 01:00:26;;;;;;;5.22;3.10;;;;;;;;;;5014648;28;20026;-82
2020/12/14 01:02:51;;;;;;;3.17;2.80;;;2.60;94.10;;;;;;5031349;28;20514;-82
2020/12/14 01:05:17;;;;;;;4.95;3.35;;;3.60;94.90;;;;;;4998140;28;20029;-82
2020/12/14 01:07:43;;;;;;;4.78;3.10;;;4.10;95.10;;;;;;5014585;28;20026;-82
2020/12/14 01:10:08;;;;;;;5.35;3.30;;;2.40;99.90;;;;;;5014755;28;20108;-83
2020/12/14 01:12:35;;;;;;;5.63;3.53;;;4.00;99.90;;;;;;5014634;28;20052;-84
2020/12/14 01:15:01;;;;;;;6.90;3.38;;;3.30;94.20;;;;;;4998359;28;20492;-84
2020/12/14 01:17:26;;;;;;;4.72;3.10;;;4.10;94.60;;;;;;5030967;28;20037;-82
2020/12/14 01:19:52;;;;;;;7.97;3.67;;;2.90;94.40;;;;;;5014316;28;20025;-82
2020/12/14 01:22:18;;;;;;;6.20;3.50;;;;;;;;;;5014523;28;20021;-84
2020/12/14 01:24:44;;;;;;;5.50;3.03;;;;;;;;;;5014342;28;20028;-82
2020/12/14 01:27:09;;;;;;;4.95;3.35;;;2.40;93.40;;;;;;5014375;28;20021;-84
2020/12/14 01:29:35;;;;;;;4.65;2.70;;;3.70;94.80;;;;;;5014585;28;20032;-82
2020/12/14 01:32:00;;;;;;;3.22;2.70;;;3.20;95.30;;;;;;5014165;28;20361;-83
2020/12/14 01:34:26;;;;;;;6.03;3.45;;;;;;;;;;5014226;28;20116;-83
2020/12/14 01:36:52;;;;;;;4.05;3.22;;;2.40;98.70;;;;;;5017426;28;20092;-82
2020/12/14 01:39:18;;;;;;;3.83;3.20;;;3.70;95.20;;;;;;5018164;28;20527;-82
2020/12/14 01:41:43;;;;;;;4.50;3.20;;;3.50;95.10;;;;;;5018335;28;20021;-82
2020/12/14 01:44:09;;;;;;;3.95;2.83;;;3.20;95.00;;;;;;5001821;28;20079;-84
2020/12/14 01:46:35;;;;;;;5.47;3.55;;;;;;;;;;5017985;28;20030;-85
2020/12/14 01:49:01;;;;;;;4.20;3.20;;;2.20;97.90;;;;;;5034302;28;20021;-82
2020/12/14 01:51:30;;;;;;;3.88;2.75;;;3.80;94.40;;;;;;5018185;28;20101;-83
2020/12/14 01:53:58;;;;;;;3.92;2.63;;;2.20;93.60;;;;;;5017363;28;20080;-83
2020/12/14 01:56:24;;;;;;;3.75;3.10;;;2.90;94.20;;;;;;5001522;28;20166;-82
2020/12/14 01:58:53;;;;;;;3.40;3.10;;;;;;;;;;5001097;28;20033;-82
2020/12/14 02:01:18;;;;;;;5.88;3.00;;;2.30;98.80;;;;;;5017660;28;20032;-85
2020/12/14 02:03:44;;;;;;;5.50;3.20;;;3.20;94.80;;;;;;5016985;28;20029;-84
2020/12/14 02:06:10;;;;;;;5.18;2.95;;;3.50;94.50;;;;;;5001311;28;20025;-83
2020/12/14 02:08:35;;;;;;;4.55;3.20;;;2.40;94.00;;;;;;5017735;28;20030;-82
2020/12/14 02:11:01;;;;;;;3.28;2.63;;;2.70;99.90;;;;;;5001144;28;20115;-82
2020/12/14 02:13:27;;;;;;;5.22;3.17;;;2.70;99.00;;;;;;4984928;28;20029;-84
2020/12/14 02:15:52;;;;;;;3.03;2.67;;;4.20;93.90;;;;;;4984829;28;20039;-82
2020/12/14 02:18:18;;;;;;;5.65;3.00;;;3.10;93.70;;;;;;5017628;28;20460;-82
2020/12/14 02:20:43;;;;;;;3.95;2.60;;;2.60;99.90;;;;;;5001298;28;20064;-83
2020/12/14 02:23:09;;;;;;;3.47;2.65;;;;;;;;;;5017605;28;20472;-83
2020/12/14 02:25:35;;;;;;;2.50;2.28;;;2.60;97.90;;;;;;5017358;28;20020;-83
2020/12/14 02:28:00;;;;;;;3.35;2.60;;;4.20;94.00;;;;;;5017065;28;20537;-85
2020/12/14 02:30:26;;;;;;;5.32;3.08;;;4.00;94.00;;;;;;5000831;28;20026;-85
2020/12/14 02:32:51;;;;;;;4.03;2.75;;;2.60;93.70;;;;;;5017015;28;20495;-83
2020/12/14 02:35:17;;;;;;;8.23;2.80;;;3.50;93.90;;;;;;5017520;28;20030;-82
2020/12/14 02:37:43;;;;;;;3.47;2.70;;;3.50;99.70;;;;;;5000712;28;20475;-84
2020/12/14 02:40:08;;;;;;;2.90;2.60;;;3.90;94.10;;;;;;5000609;28;20025;-82
2020/12/14 02:42:34;;;;;;;3.15;2.47;;;3.10;94.10;;;;;;4983381;28;20463;-83
2020/12/14 02:44:59;;;;;;;2.20;2.00;;;2.20;99.90;;;;;;4984314;28;20057;-82
2020/12/14 02:47:25;;;;;;;2.75;2.35;;;2.90;93.90;;;;;;5000374;28;20051;-83
2020/12/14 02:49:51;;;;;;;4.60;2.70;;;;;;;;;;5000588;28;20037;-82
2020/12/14 02:52:16;;;;;;;3.15;2.60;;;2.20;93.40;;;;;;5016702;28;20141;-84
2020/12/14 02:54:43;;;;;;;3.45;2.53;;;3.40;94.60;;;;;;5000418;28;20112;-82
2020/12/14 02:57:09;;;;;;;2.88;2.50;;;2.00;99.90;;;;;;5000474;28;20335;-83
2020/12/14 02:59:34;;;;;;;4.15;2.35;;;2.90;93.80;;;;;;5000370;28;20258;-85
2020/12/14 03:02:00;;;;;;;3.00;2.42;;;2.20;93.90;;;;;;4983777;28;20120;-83
2020/12/14 03:04:26;;;;;;;3.28;2.70;;;3.00;94.00;;;;;;4984075;28;20119;-82
2020/12/14 03:06:51;;;;;;;3.65;2.83;;;2.20;94.10;;;;;;4984014;28;20452;-83
2020/12/14 03:09:18;;;;;;;3.83;3.10;;;2.40;99.90;;;;;;5016530;28;20068;-82
2020/12/14 03:11:44;;;;;;;3.38;2.75;;;2.40;93.60;;;;;;5000471;28;20018;-85
2020/12/14 03:14:09;;;;;;;2.80;2.60;;;3.60;94.40;;;;;;4983660;28;20400;-81
2020/12/14 03:16:46;;;;;;;5.50;2.90;;;3.10;94.40;;;;;;4984058;28;20054;-82
2020/12/14 03:19:12;;;;;;;2.70;2.47;;;3.30;94.50;;;;;;4983930;28;20029;-83
2020/12/14 03:21:37;;;;;;;3.40;2.40;;;3.20;94.30;;;;;;4999899;28;20464;-82
2020/12/14 03:24:04;;;;;;;3.83;2.63;;;;;;;;;;4983783;28;20444;-84
2020/12/14 03:26:29;;;;;;;4.07;2.88;;;2.10;96.90;;;;;;5016297;28;20091;-82
2020/12/14 03:28:55;;;;;;;3.75;2.65;;;3.40;93.70;;;;;;4999616;28;20460;-84
2020/12/14 03:31:21;;;;;;;4.82;2.88;;;3.10;93.80;;;;;;4999614;28;20116;-82
2020/12/14 03:33:46;;;;;;;3.42;2.53;;;2.90;94.20;;;;;;4999641;28;20076;-84
2020/12/14 03:36:12;;;;;;;3.15;2.85;;;;;;;;;;4999499;28;20083;-83
2020/12/14 03:38:38;;;;;;;4.85;2.70;;;1.80;98.50;;;;;;5016402;28;20032;-84
2020/12/14 03:41:06;;;;;;;3.22;2.30;;;3.30;95.10;;;;;;4999792;28;20026;-84
2020/12/14 03:43:32;;;;;;;3.05;2.67;;;3.80;94.80;;;;;;4983325;28;20036;-83
2020/12/14 03:45:58;;;;;;;3.58;2.70;;;3.70;94.60;;;;;;4983345;28;20108;-82
2020/12/14 03:48:24;;;;;;;5.15;2.50;;;;;;;;;;4983302;28;20032;-82
2020/12/14 03:50:49;;;;;;;2.03;1.80;;;1.90;99.10;;;;;;5015931;28;20014;-82
2020/12/14 03:53:15;;;;;;;2.10;1.90;;;2.90;94.40;;;;;;4998977;28;20057;-84
2020/12/14 03:55:41;;;;;;;1.92;1.83;;;2.70;94.70;;;;;;4999176;28;20030;-85
2020/12/14 03:58:10;;;;;;;4.28;2.40;;;4.50;95.40;;;;;;4998518;28;20044;-82
2020/12/14 04:00:36;;;;;;;2.60;2.40;;;;;;;;;;4983168;28;20033;-83
2020/12/14 04:03:05;;;;;;;2.80;2.33;;;1.90;97.80;;;;;;4999211;28;20040;-83
2020/12/14 04:05:30;;;;;;;4.72;2.40;;;3.60;94.50;;;;;;4999586;28;20427;-82
2020/12/14 04:07:56;;;;;;;2.95;2.65;;;3.40;94.10;;;;;;4999048;28;20128;-82
2020/12/14 04:10:22;;;;;;;3.17;2.38;;;3.40;94.00;;;;;;4999268;28;20120;-82
2020/12/14 04:12:48;;;;;;;3.42;2.78;;;;;;;;;;4998993;28;20140;-81
2020/12/14 04:15:13;;;;;;;3.55;2.53;;;2.20;96.80;;;;;;4999124;28;20124;-82
2020/12/14 04:17:39;;;;;;;3.45;2.40;;;3.30;93.50;;;;;;4982757;28;20025;-82
2020/12/14 04:20:04;;;;;;;5.32;2.70;;;2.80;93.70;;;;;;4982664;28;20084;-83
2020/12/14 04:22:30;;;;;;;3.22;2.45;;;2.60;94.00;;;;;;4982604;28;20140;-82
2020/12/14 04:24:56;;;;;;;6.88;4.07;;;;;;;;;;5015285;28;20036;-82
2020/12/14 04:27:21;;;;;;;15.07;10.02;;;1.60;97.60;;;;;;5032635;28;20033;-84
2020/12/14 04:29:47;;;;;;;5.63;3.85;;;3.30;94.50;;;;;;4982582;28;20072;-84
2020/12/14 04:32:13;;;;;;;2.75;2.45;;;2.80;94.60;;;;;;4998770;28;20392;-83
2020/12/14 04:34:38;;;;;;;4.20;3.80;;;2.50;94.60;;;;;;4982306;28;20048;-83
2020/12/14 04:37:04;;;;;;;4.03;2.60;;;;;;;;;;4998798;28;20044;-82
2020/12/14 04:39:30;;;;;;;10.73;8.20;;;1.90;97.80;;;;;;5015437;28;20511;-82
2020/12/14 04:41:56;;;;;;;21.95;12.63;;;3.10;94.10;;;;;;4998341;28;20032;-81
2020/12/14 04:44:22;;;;;;;21.48;12.52;;;;;;;;;;4982499;28;20064;-82
2020/12/14 04:46:49;;;;;;;25.55;11.02;;;1.40;99.90;;;;;;4998489;28;20135;-81
2020/12/14 04:49:14;;;;;;;42.70;17.85;;;2.90;94.70;;;;;;4998684;28;20029;-80
2020/12/14 04:51:40;;;;;;;24.55;12.32;;;3.00;94.90;;;;;;4982434;28;20033;-81
2020/12/14 04:54:06;;;;;;;42.53;24.50;;;2.90;95.00;;;;;;4981981;28;20054;-82
2020/12/14 04:56:38;;;;;;;15.63;10.07;;;1.50;94.50;;;;;;4982543;28;20030;-80
2020/12/14 04:59:04;;;;;;;52.90;29.63;;;1.50;99.90;;;;;;4983035;28;20029;-81
2020/12/14 05:01:29;;;;;;;6.25;4.35;;;3.40;94.80;;;;;;4998294;28;20041;-81
2020/12/14 05:03:55;;;;;;;6.55;5.45;;;2.20;99.90;;;;;;4982247;28;20443;-83
2020/12/14 05:06:21;;;;;;;7.43;5.63;;;2.30;94.40;;;;;;4998206;28;20030;-81
2020/12/14 05:08:46;;;;;;;4.18;3.50;;;1.70;99.90;;;;;;4980869;28;20025;-80
2020/12/14 05:11:12;;;;;;;46.72;24.80;;;;;;;;;;5018626;28;20105;-83
2020/12/14 05:13:38;;;;;;;3.83;3.03;;;1.50;93.30;;;;;;5018233;28;20120;-82
2020/12/14 05:16:03;;;;;;;33.78;20.20;;;2.70;95.10;;;;;;5002365;28;20444;-82
2020/12/14 05:18:29;;;;;;;24.58;19.48;;;1.60;94.50;;;;;;4986137;28;20539;-82
2020/12/14 05:20:59;;;;;;;17.33;11.50;;;3.60;94.40;;;;;;4985732;28;20161;-80
2020/12/14 05:23:25;;;;;;;4.45;3.83;;;;;;;;;;4986544;28;20029;-81
2020/12/14 05:25:58;;;;;;;7.38;6.07;;;1.70;97.10;;;;;;5001815;28;20029;-80
2020/12/14 05:28:56;;;;;;;8.57;6.63;;;1.70;99.90;;;;;;5002995;28;20056;-83
2020/12/14 05:31:21;;;;;;;15.30;11.88;;;1.70;93.60;;;;;;5013749;28;20510;-82
2020/12/14 05:33:47;;;;;;;16.20;12.13;;;;;;;;;;5002107;28;20065;-82
2020/12/14 05:36:16;;;;;;;22.98;15.45;;;1.30;93.30;;;;;;5018149;28;20032;-83
2020/12/14 05:38:42;;;;;;;11.57;7.55;;;;;;;;;;5000243;28;20033;-82
2020/12/14 05:41:08;;;;;;;15.85;11.07;;;1.30;98.40;;;;;;5033400;28;20029;-82
2020/12/14 05:43:34;;;;;;;13.25;10.10;;;1.60;95.00;;;;;;4998611;28;20034;-83
2020/12/14 05:46:12;;;;;;;7.30;5.97;;;1.70;95.40;;;;;;4998890;28;20475;-82
2020/12/14 05:48:38;;;;;;;3.28;2.88;;;1.10;99.90;;;;;;4998155;28;20423;-82
2020/12/14 05:51:08;;;;;;;4.53;2.92;;;1.30;99.90;;;;;;5011114;28;20029;-83
2020/12/14 05:53:40;;;;;;;5.43;2.40;;;1.50;94.50;;;;;;5032051;28;20057;-85
2020/12/14 05:56:06;;;;;;;;;;;1.20;94.00;;;;;;5035192;28;20056;-83
2020/12/14 05:58:33;;;;;;;2.95;2.40;;;3.20;95.40;;;;;;5034249;28;19905;-83
2020/12/14 06:01:05;;;;;;;2.42;2.20;;;2.60;94.90;;;;;;5017773;28;20029;-83
2020/12/14 06:03:31;;;;;;;2.63;2.10;;;;;;;;;;5002158;28;20056;-82
2020/12/14 06:06:08;;;;;;;3.17;2.50;;;1.60;93.60;;;;;;4985997;28;20053;-87
2020/12/14 06:08:46;;;;;;;2.60;2.40;;;2.40;94.10;;;;;;4998606;28;20026;-82
2020/12/14 06:11:12;;;;;;;5.80;3.00;;;;;;;;;;5015813;28;20547;-82
2020/12/14 06:13:51;;;;;;;4.50;2.88;;;2.00;93.00;;;;;;5004598;28;20033;-80
2020/12/14 06:16:19;;;;;;;11.88;8.98;;;1.60;98.80;;;;;;5017635;28;20120;-84
2020/12/14 06:18:45;;;;;;;6.75;5.10;;;3.60;99.70;;;;;;5017709;28;20049;-81
2020/12/14 06:21:16;;;;;;;4.82;4.38;;;2.80;93.80;;;;;;5000671;28;20072;-78
2020/12/14 06:23:42;;;;;;;5.20;4.70;;;;;;;;;;5002038;28;20435;-82
2020/12/14 06:26:08;;;;;;;5.30;3.70;;;1.50;99.90;;;;;;5017742;28;20384;-78
2020/12/14 06:28:34;;;;;;;6.95;4.05;;;2.90;93.80;;;;;;5016128;28;20029;-78
2020/12/14 06:31:00;;;;;;;4.32;3.03;;;2.30;93.50;;;;;;5017446;28;20026;-78
2020/12/14 06:33:33;;;;;;;5.57;3.65;;;2.70;93.60;;;;;;5016895;28;20030;-76
2020/12/14 06:36:18;;;;;;;4.35;3.10;;;1.70;93.20;;;;;;5033801;28;20141;-76
2020/12/14 06:39:40;;;;;;;5.32;3.70;;;1.50;92.50;;;;;;5014036;28;20100;-77
2020/12/14 06:42:09;;;;;;;3.70;2.83;;;2.60;93.20;;;;;;5003000;28;20040;-78
2020/12/14 06:44:55;;;;;;;4.25;3.38;;;3.20;93.40;;;;;;5014994;28;20411;-77
2020/12/14 06:47:20;;;;;;;5.20;3.65;;;1.80;93.30;;;;;;5010358;28;20480;-78
2020/12/14 06:49:47;;;;;;;6.82;3.92;;;2.70;93.20;;;;;;4997313;28;20026;-78
2020/12/14 06:52:13;;;;;;;4.68;3.35;;;2.60;93.00;;;;;;4997390;28;20052;-78
2020/12/14 06:54:40;;;;;;;5.47;3.83;;;1.90;93.00;;;;;;4997495;28;20488;-79
2020/12/14 06:57:05;;;;;;;7.00;4.65;;;3.50;92.90;;;;;;4996563;28;20100;-81
2020/12/14 06:59:31;;;;;;;7.10;5.13;;;1.90;93.00;;;;;;4993712;28;20045;-79
2020/12/14 07:01:58;;;;;;;6.05;3.92;;;3.70;93.30;;;;;;5004934;28;20075;-78
2020/12/14 07:04:31;;;;;;;5.45;3.85;;;2.30;92.80;;;;;;5014324;28;20026;-79
2020/12/14 07:07:17;;;;;;;13.88;10.38;;;1.40;99.90;;;;;;5005736;28;20044;-80
2020/12/14 07:09:43;;;;;;;14.32;11.32;;;;;;;;;;5015728;28;20507;-79
2020/12/14 07:12:09;;;;;;;23.38;15.57;;;1.40;97.50;;;;;;5023135;28;20022;-79
2020/12/14 07:14:51;;;;;;;9.90;7.25;;;2.70;94.00;;;;;;5005872;28;20052;-79
2020/12/14 07:17:24;;;;;;;4.05;3.22;;;1.40;93.10;;;;;;4990051;28;20030;-79
2020/12/14 07:19:51;;;;;;;4.70;3.35;;;1.60;99.90;;;;;;5022521;28;21189;-80
2020/12/14 07:22:18;;;;;;;5.65;4.10;;;2.80;93.70;;;;;;5022453;28;20026;-79
2020/12/14 07:24:43;;;;;;;4.03;3.58;;;3.10;93.70;;;;;;5021753;28;20070;-79
2020/12/14 07:27:10;;;;;;;4.25;2.90;;;2.40;93.40;;;;;;5013919;28;20064;-80
2020/12/14 07:29:36;;;;;;;4.43;3.40;;;1.50;93.10;;;;;;5014046;28;20112;-80
2020/12/14 07:32:05;;;;;;;4.13;3.53;;;2.00;99.90;;;;;;5021550;28;20101;-80
2020/12/14 07:34:30;;;;;;;6.00;4.55;;;1.60;93.50;;;;;;5012802;28;20055;-81
2020/12/14 07:36:56;;;;;;;11.25;7.50;;;1.70;99.90;;;;;;5012945;28;20460;-79
2020/12/14 07:39:22;;;;;;;5.63;4.25;;;1.60;93.00;;;;;;4996703;28;20029;-79
2020/12/14 07:41:47;;;;;;;5.50;4.20;;;2.60;93.60;;;;;;5021826;28;20026;-80
2020/12/14 07:44:15;;;;;;;5.72;4.00;;;1.10;96.70;;;;;;5021555;28;20032;-80
2020/12/14 07:46:41;;;;;;;9.18;5.03;;;1.10;98.30;;;;;;5005095;28;20353;-79
2020/12/14 07:49:08;;;;;;;9.25;4.90;;;3.20;93.40;;;;;;4995894;28;20022;-78
2020/12/14 07:51:38;;;;;;;7.63;4.88;;;3.10;93.10;;;;;;5012891;28;20075;-80
2020/12/14 07:54:05;;;;;;;8.25;3.63;;;1.70;92.40;;;;;;4996459;28;20450;-81
2020/12/14 07:56:31;;;;;;;5.50;3.70;;;2.00;96.90;;;;;;5004092;28;20026;-81
2020/12/14 07:58:58;;;;;;;5.15;3.80;;;2.00;91.70;;;;;;5021251;28;20112;-80
2020/12/14 08:01:23;;;;;;;5.68;3.90;;;2.30;92.20;;;;;;5004778;28;20117;-78
2020/12/14 08:03:49;;;;;;;7.22;3.70;;;3.50;90.90;;;;;;5021213;28;20041;-80
2020/12/14 08:06:16;;;;;;;7.80;4.07;;;4.40;93.20;;;;;;5012642;28;20040;-81
2020/12/14 08:08:47;;;;;;;10.45;6.25;;;4.70;83.20;;;;;;5013250;28;20086;-80
2020/12/14 08:11:13;;;;;;;11.00;5.97;;;5.00;80.10;;;;;;5005072;28;20446;-81
2020/12/14 08:13:39;;;;;;;7.57;4.38;;;5.70;78.60;;;;;;5012906;28;20292;-78
2020/12/14 08:16:40;;;;;;;4.25;3.20;;;6.50;92.40;;;;;;5020761;28;20029;-81
2020/12/14 08:19:06;;;;;;;3.33;2.70;;;;;;;;;;5018450;28;20041;-81
2020/12/14 08:21:35;;;;;;;4.03;2.92;;;6.80;72.60;;;;;;5021198;28;20026;-81
2020/12/14 08:24:12;;;;;;;4.63;3.53;;;7.00;72.00;;;;;;5013537;28;20064;-81
2020/12/14 08:26:41;;;;;;;4.60;2.85;;;7.00;72.60;;;;;;5020996;28;20030;-80
2020/12/14 08:29:06;;;;;;;6.03;3.20;;;7.00;71.80;;;;;;5012439;28;20124;-78
2020/12/14 08:31:34;;;;;;;5.15;3.17;;;7.20;93.90;;;;;;5012096;28;20124;-79
2020/12/14 08:34:00;;;;;;;3.88;2.83;;;7.50;84.70;;;;;;5012216;28;20038;-79
2020/12/14 08:36:26;;;;;;;4.75;2.80;;;7.40;70.90;;;;;;5020804;28;20041;-81
2020/12/14 08:38:51;;;;;;;3.55;2.72;;;7.20;70.80;;;;;;5004014;28;20030;-80
2020/12/14 08:41:24;;;;;;;4.35;2.90;;;7.40;72.60;;;;;;5020566;28;20117;-80
2020/12/14 08:43:59;;;;;;;4.55;3.60;;;6.90;81.80;;;;;;5020596;28;20037;-80
2020/12/14 08:46:28;;;;;;;3.88;2.80;;;7.20;84.70;;;;;;4995623;28;20038;-80
2020/12/14 08:48:56;;;;;;;4.05;3.35;;;7.20;73.30;;;;;;5020915;28;20032;-79
2020/12/14 08:51:26;;;;;;;2.88;2.50;;;7.50;73.00;;;;;;5012633;28;20391;-79
2020/12/14 08:53:53;;;;;;;4.35;2.83;;;7.60;93.10;;;;;;5020304;28;20042;-79
2020/12/14 08:56:32;;;;;;;4.35;2.83;;;7.70;70.90;;;;;;5019919;28;20132;-77
2020/12/14 08:58:58;;;;;;;3.88;3.03;;;7.80;70.50;;;;;;5004459;28;20481;-76
2020/12/14 09:01:32;;;;;;;4.68;3.22;;;8.20;71.10;;;;;;5020545;28;20053;-77
2020/12/14 09:04:01;;;;;;;4.00;2.90;;;8.30;69.90;;;;;;5014539;28;20033;-76
2020/12/14 09:06:32;;;;;;;3.00;2.65;;;8.40;93.50;;;;;;5006717;28;20104;-77
2020/12/14 09:09:11;;;;;;;3.97;2.93;;;8.30;70.30;;;;;;4995156;28;20538;-77
2020/12/14 09:11:57;;;;;;;4.05;2.58;;;8.60;82.40;;;;;;4978836;28;20456;-77
2020/12/14 09:14:30;;;;;;;4.20;3.08;;;8.90;69.90;;;;;;5012087;28;20045;-77
2020/12/14 09:16:57;;;;;;;4.18;3.13;;;9.20;68.20;;;;;;5012739;28;20026;-77
2020/12/14 09:19:30;;;;;;;5.47;3.70;;;9.20;67.20;;;;;;4994579;28;20379;-77
2020/12/14 09:21:56;;;;;;;5.43;3.58;;;;;;;;;;4994862;28;20030;-77
2020/12/14 09:24:27;;;;;;;7.22;5.53;;;8.70;82.60;;;;;;4994762;28;20069;-77
2020/12/14 09:27:01;;;;;;;4.82;3.58;;;8.90;71.60;;;;;;5011137;28;20026;-77
2020/12/14 09:29:26;;;;;;;3.10;2.60;;;9.30;68.90;;;;;;5012237;28;20030;-77
2020/12/14 09:31:53;;;;;;;4.72;2.95;;;9.60;68.30;;;;;;5012523;28;20117;-77
2020/12/14 09:34:19;;;;;;;6.45;4.38;;;10.20;94.60;;;;;;5011198;28;20124;-77
2020/12/14 09:36:45;;;;;;;4.20;3.17;;;9.80;69.10;;;;;;5010858;28;20065;-78
2020/12/14 09:39:10;;;;;;;5.25;3.72;;;10.40;67.20;;;;;;5011245;28;20036;-78
2020/12/14 09:41:36;;;;;;;4.95;3.70;;;10.90;65.30;;;;;;5010554;28;20076;-77
2020/12/14 09:44:01;;;;;;;4.38;3.05;;;11.30;64.70;;;;;;5010770;28;20361;-77
2020/12/14 09:46:28;;;;;;;3.88;3.25;;;11.80;90.80;;;;;;5010861;28;20034;-77
2020/12/14 09:48:54;;;;;;;4.05;3.53;;;11.50;65.30;;;;;;5010899;28;20172;-78
2020/12/14 09:51:20;;;;;;;3.20;2.88;;;11.50;65.40;;;;;;4994584;28;20140;-77
2020/12/14 09:53:45;;;;;;;3.50;3.20;;;11.50;65.90;;;;;;5007470;28;20477;-77
2020/12/14 09:56:11;;;;;;;2.95;2.55;;;11.20;66.70;;;;;;5008214;28;20067;-77
2020/12/14 09:58:37;;;;;;;5.28;4.07;;;;;;;;;;5010850;28;20034;-77
2020/12/14 10:01:03;;;;;;;4.47;3.60;;;10.70;73.70;;;;;;4996259;28;20027;-77
2020/12/14 10:03:28;;;;;;;4.03;3.47;;;10.70;67.20;;;;;;5011149;28;20490;-77
2020/12/14 10:05:54;;;;;;;3.78;3.20;;;10.80;68.70;;;;;;4995888;28;20129;-78
2020/12/14 10:08:19;;;;;;;4.15;3.20;;;11.30;66.70;;;;;;4996174;28;20408;-77
2020/12/14 10:10:45;;;;;;;7.78;3.33;;;11.70;66.90;;;;;;4995799;28;20030;-77
2020/12/14 10:13:11;;;;;;;2.92;2.63;;;12.10;74.20;;;;;;4995609;28;20095;-77
2020/12/14 10:15:37;;;;;;;3.70;3.10;;;12.00;65.60;;;;;;5010622;28;20460;-77
2020/12/14 10:18:03;;;;;;;2.53;2.33;;;12.20;65.50;;;;;;5010602;28;20110;-76
2020/12/14 10:20:28;;;;;;;3.05;2.55;;;12.50;63.80;;;;;;4995882;28;20036;-78
2020/12/14 10:22:54;;;;;;;2.80;2.60;;;12.70;88.20;;;;;;4994582;28;20113;-77
2020/12/14 10:25:20;;;;;;;3.88;2.95;;;12.70;71.50;;;;;;5010703;28;20030;-77
2020/12/14 10:27:46;;;;;;;3.75;3.45;;;12.90;62.90;;;;;;5010745;28;20022;-77
2020/12/14 10:30:12;;;;;;;2.53;2.33;;;12.90;62.90;;;;;;4994330;28;20037;-77
2020/12/14 10:32:37;;;;;;;2.92;2.63;;;13.20;61.50;;;;;;5010714;28;20026;-77
2020/12/14 10:35:03;;;;;;;3.40;3.10;;;13.70;86.10;;;;;;4995523;28;20042;-77
2020/12/14 10:37:28;;;;;;;3.00;2.70;;;13.70;68.70;;;;;;4995370;28;20057;-78
2020/12/14 10:39:54;;;;;;;3.08;2.58;;;14.40;59.80;;;;;;4995491;28;20058;-77
2020/12/14 10:42:20;;;;;;;3.33;2.63;;;14.40;59.30;;;;;;5010347;28;20038;-77
2020/12/14 10:44:45;;;;;;;3.10;2.58;;;14.30;59.40;;;;;;5010489;28;20833;-77
2020/12/14 10:47:11;;;;;;;4.00;2.70;;;14.30;58.70;;;;;;5010373;28;20030;-77
2020/12/14 10:49:36;;;;;;;2.85;2.58;;;14.30;59.00;;;;;;5010273;28;20037;-77
2020/12/14 10:52:02;;;;;;;3.80;2.72;;;14.40;59.70;;;;;;5010807;28;20030;-77
2020/12/14 10:54:28;;;;;;;4.28;2.85;;;14.80;59.10;;;;;;4997161;28;20081;-77
2020/12/14 10:56:53;;;;;;;4.22;2.78;;;14.70;59.20;;;;;;5013362;28;20038;-77
2020/12/14 10:59:19;;;;;;;4.50;2.72;;;14.60;59.00;;;;;;4997086;28;20072;-77
2020/12/14 11:01:51;;;;;;;3.03;2.58;;;14.20;59.30;;;;;;5013316;28;20053;-78
2020/12/14 11:04:17;;;;;;;2.70;2.42;;;14.00;60.70;;;;;;4997065;28;20061;-77
2020/12/14 11:06:43;;;;;;;3.58;2.47;;;13.90;61.60;;;;;;5023171;28;20053;-77
2020/12/14 11:09:12;;;;;;;3.53;2.17;;;13.90;62.30;;;;;;5016442;28;20492;-77
2020/12/14 11:11:37;;;;;;;3.13;2.53;;;13.50;63.00;;;;;;5016483;28;20453;-77
2020/12/14 11:14:03;;;;;;;2.75;2.45;;;13.60;63.30;;;;;;5016576;28;20033;-78
2020/12/14 11:16:30;;;;;;;2.95;2.47;;;13.70;62.90;;;;;;5000125;28;20022;-77
2020/12/14 11:18:57;;;;;;;3.65;2.80;;;13.60;62.60;;;;;;5033018;28;20036;-77
2020/12/14 11:21:22;;;;;;;2.40;2.17;;;13.60;62.10;;;;;;5032700;28;20032;-77
2020/12/14 11:23:48;;;;;;;2.97;2.08;;;13.30;63.00;;;;;;5032913;28;20029;-77
2020/12/14 11:26:13;;;;;;;2.35;2.15;;;13.10;64.50;;;;;;5033921;28;20033;-78
2020/12/14 11:28:39;;;;;;;5.38;2.10;;;12.80;65.70;;;;;;5016155;28;20025;-77
2020/12/14 11:31:06;;;;;;;5.13;2.60;;;12.70;67.00;;;;;;5015970;28;20479;-77
2020/12/14 11:33:32;;;;;;;2.22;2.03;;;12.70;67.90;;;;;;5015996;28;20037;-78
2020/12/14 11:35:57;;;;;;;2.30;2.10;;;12.90;66.30;;;;;;5032715;28;20470;-77
2020/12/14 11:38:23;;;;;;;2.45;2.20;;;13.10;65.70;;;;;;5032205;28;20026;-77
2020/12/14 11:40:48;;;;;;;4.88;2.53;;;13.10;65.40;;;;;;5033247;28;20116;-78
2020/12/14 11:43:14;;;;;;;2.58;2.13;;;12.80;66.40;;;;;;5033334;28;20115;-77
2020/12/14 11:45:39;;;;;;;3.20;1.90;;;12.50;66.30;;;;;;5032236;28;20029;-77
2020/12/14 11:48:05;;;;;;;2.42;1.95;;;12.00;67.80;;;;;;5033326;28;20104;-77
2020/12/14 11:50:32;;;;;;;2.17;2.03;;;11.60;69.60;;;;;;5033493;28;20049;-76
2020/12/14 11:52:58;;;;;;;2.63;2.35;;;11.20;72.20;;;;;;5015411;28;20049;-77
2020/12/14 11:55:27;;;;;;;2.33;2.13;;;11.00;72.50;;;;;;5031800;28;20490;-76
2020/12/14 11:57:54;;;;;;;3.17;2.33;;;10.90;73.40;;;;;;5015457;28;20029;-77
2020/12/14 12:00:23;;;;;;;2.45;2.25;;;10.80;74.40;;;;;;5014516;28;20030;-77
2020/12/14 12:02:50;;;;;;;2.45;2.20;;;10.70;94.30;;;;;;5012349;28;20437;-76
2020/12/14 12:05:20;;;;;;;2.80;2.40;;;10.60;73.60;;;;;;5020895;28;20040;-77
2020/12/14 12:07:45;;;;;;;2.67;2.33;;;10.80;73.70;;;;;;5014619;28;20029;-76
2020/12/14 12:10:11;;;;;;;2.65;2.35;;;10.60;74.50;;;;;;4996563;28;20044;-76
2020/12/14 12:12:44;;;;;;;2.53;2.22;;;10.60;75.00;;;;;;5012791;28;20485;-76
2020/12/14 12:15:15;;;;;;;2.35;2.15;;;10.60;94.50;;;;;;4995666;28;20045;-77
2020/12/14 12:17:41;;;;;;;2.40;2.20;;;10.60;74.10;;;;;;4998723;28;20088;-78
2020/12/14 12:20:07;;;;;;;3.13;2.10;;;10.50;75.20;;;;;;5015144;28;20030;-78
2020/12/14 12:22:33;;;;;;;2.88;2.53;;;10.50;76.10;;;;;;5015423;28;20026;-78
2020/12/14 12:24:59;;;;;;;2.70;2.30;;;10.50;75.80;;;;;;5012966;28;20033;-77
2020/12/14 12:27:25;;;;;;;2.83;2.50;;;;;;;;;;4995143;28;20036;-77
2020/12/14 12:29:50;;;;;;;3.17;2.28;;;9.70;82.40;;;;;;4993700;28;20531;-77
2020/12/14 12:32:16;;;;;;;6.97;5.80;;;10.80;74.50;;;;;;5012719;28;20026;-77
2020/12/14 12:34:41;;;;;;;3.00;2.70;;;10.90;74.30;;;;;;5011245;28;20034;-78
2020/12/14 12:37:07;;;;;;;15.10;8.93;;;11.00;73.90;;;;;;5011618;28;20034;-77
2020/12/14 12:39:33;;;;;;;26.65;14.60;;;;;;;;;;5012900;28;20074;-77
2020/12/14 12:41:59;;;;;;;9.05;5.57;;;11.00;80.20;;;;;;4995201;28;20049;-77
2020/12/14 12:44:25;;;;;;;8.65;4.60;;;11.10;75.20;;;;;;5012924;28;20065;-77
2020/12/14 12:46:50;;;;;;;4.30;3.13;;;10.90;75.90;;;;;;5011611;28;20511;-77
2020/12/14 12:49:16;;;;;;;8.77;4.78;;;10.90;76.00;;;;;;5012913;28;20438;-78
2020/12/14 12:51:49;;;;;;;3.90;3.03;;;10.60;82.70;;;;;;4995135;28;20029;-77
2020/12/14 12:54:15;;;;;;;3.50;2.78;;;10.70;86.20;;;;;;4994865;28;20058;-77
2020/12/14 12:56:40;;;;;;;3.20;2.90;;;10.60;76.00;;;;;;5011889;28;20056;-77
2020/12/14 12:59:06;;;;;;;4.63;2.92;;;10.60;75.90;;;;;;4995530;28;20038;-77
2020/12/14 13:01:31;;;;;;;3.40;2.88;;;10.60;76.20;;;;;;4995198;28;20025;-77
2020/12/14 13:03:57;;;;;;;4.78;3.30;;;;;;;;;;4995051;28;20076;-77